createdAt,value
2019-06-26T00:01:06.796Z,53.37
2019-06-26T00:03:37.010Z,53.48
2019-06-26T00:06:07.376Z,53.80
2019-06-26T00:08:37.618Z,54.01
2019-06-26T00:11:08.188Z,54.02
2019-06-26T00:13:38.366Z,54.15
2019-06-26T00:16:08.854Z,54.30
2019-06-26T00:18:39.045Z,54.38
2019-06-26T00:21:09.303Z,54.40
2019-06-26T00:23:39.490Z,54.68
2019-06-26T00:26:09.696Z,54.92
2019-06-26T00:28:40.235Z,55.17
2019-06-26T00:31:10.508Z,55.48
2019-06-26T00:33:40.688Z,55.52
2019-06-26T00:36:11.271Z,55.84
2019-06-26T00:38:41.474Z,55.87
2019-06-26T00:41:11.656Z,56.00
2019-06-26T00:43:42.906Z,56.29
2019-06-26T00:46:13.263Z,56.36
2019-06-26T00:48:43.463Z,56.32
2019-06-26T00:51:13.673Z,56.28
2019-06-26T00:53:44.172Z,56.23
2019-06-26T00:56:17.343Z,56.70
2019-06-26T00:58:47.515Z,56.87
2019-06-26T01:01:17.727Z,56.77
2019-06-26T01:03:49.583Z,56.84
2019-06-26T01:06:37.634Z,56.36
2019-06-26T01:09:07.995Z,56.44
2019-06-26T01:11:38.305Z,56.51
2019-06-26T01:14:08.671Z,56.41
2019-06-26T01:16:38.399Z,56.50
2019-06-26T01:19:08.567Z,56.51
2019-06-26T01:21:38.841Z,56.72
2019-06-26T01:24:08.568Z,56.67
2019-06-26T01:26:38.759Z,56.81
2019-06-26T01:29:08.512Z,56.99
2019-06-26T01:31:38.863Z,57.41
2019-06-26T01:34:09.031Z,57.70
2019-06-26T01:36:39.249Z,57.72
2019-06-26T01:39:09.483Z,57.69
2019-06-26T01:41:39.815Z,57.71
2019-06-26T01:44:14.750Z,58.09
2019-06-26T01:46:41.532Z,58.12
2019-06-26T01:49:11.788Z,57.98
2019-06-26T01:51:42.962Z,57.87
2019-06-26T01:54:12.645Z,57.79
2019-06-26T01:56:42.298Z,57.94
2019-06-26T01:59:12.069Z,58.06
2019-06-26T02:01:41.705Z,57.88
2019-06-26T02:04:11.388Z,57.85
2019-06-26T02:06:41.022Z,57.72
2019-06-26T02:09:11.276Z,57.63
2019-06-26T02:11:40.924Z,57.41
2019-06-26T02:14:11.121Z,57.21
2019-06-26T02:16:41.420Z,57.33
2019-06-26T02:19:13.626Z,57.40
2019-06-26T02:21:45.744Z,57.61
2019-06-26T02:24:15.951Z,57.47
2019-06-26T02:26:47.137Z,57.56
2019-06-26T02:29:17.319Z,57.62
2019-06-26T02:31:47.584Z,57.65
2019-06-26T02:34:17.923Z,57.66
2019-06-26T02:36:47.533Z,57.80
2019-06-26T02:39:17.201Z,57.84
2019-06-26T02:41:46.980Z,57.95
2019-06-26T02:44:16.630Z,58.21
2019-06-26T02:46:46.260Z,58.39
2019-06-26T02:49:16.511Z,58.56
2019-06-26T02:51:46.684Z,58.64
2019-06-26T02:54:16.921Z,58.78
2019-06-26T02:56:47.109Z,58.74
2019-06-26T02:59:17.775Z,58.64
2019-06-26T03:01:47.472Z,58.49
2019-06-26T03:04:17.215Z,58.39
2019-06-26T03:06:48.377Z,58.58
2019-06-26T03:09:18.840Z,58.76
2019-06-26T03:11:48.469Z,59.07
2019-06-26T03:14:18.107Z,59.39
2019-06-26T03:16:48.304Z,59.60
2019-06-26T03:19:18.010Z,59.77
2019-06-26T03:21:47.649Z,59.98
2019-06-26T03:24:17.298Z,60.31
2019-06-26T03:26:46.967Z,60.54
2019-06-26T03:29:16.668Z,60.83
2019-06-26T03:31:46.346Z,61.00
2019-06-26T03:34:16.073Z,61.55
2019-06-26T03:36:45.805Z,61.88
2019-06-26T03:39:15.427Z,62.09
2019-06-26T03:41:45.107Z,62.42
2019-06-26T03:44:14.820Z,62.27
2019-06-26T03:46:44.626Z,62.07
2019-06-26T03:49:14.269Z,62.07
2019-06-26T03:51:43.878Z,62.03
2019-06-26T03:54:13.521Z,62.19
2019-06-26T03:56:43.341Z,62.51
2019-06-26T03:59:12.963Z,62.93
2019-06-26T04:01:43.166Z,63.26
2019-06-26T04:04:12.880Z,63.53
2019-06-26T04:06:42.650Z,63.82
2019-06-26T04:09:12.352Z,63.58
2019-06-26T04:11:43.472Z,63.74
2019-06-26T04:14:13.201Z,63.74
2019-06-26T04:16:44.492Z,63.88
2019-06-26T04:19:14.250Z,64.12
2019-06-26T04:21:43.859Z,64.33
2019-06-26T04:24:13.573Z,64.18
2019-06-26T04:26:43.334Z,63.97
2019-06-26T04:29:13.059Z,63.82
2019-06-26T04:31:42.693Z,63.82
2019-06-26T04:34:12.415Z,63.60
2019-06-26T04:36:42.679Z,63.40
2019-06-26T04:39:12.648Z,63.38
2019-06-26T04:41:42.680Z,63.95
2019-06-26T04:44:12.486Z,64.49
2019-06-26T04:46:42.734Z,64.37
2019-06-26T04:49:18.066Z,64.38
2019-06-26T04:51:48.656Z,64.01
2019-06-26T04:54:18.297Z,63.71
2019-06-26T04:56:48.024Z,63.50
2019-06-26T04:59:17.667Z,63.44
2019-06-26T05:01:47.353Z,63.38
2019-06-26T05:04:17.667Z,63.44
2019-06-26T05:06:47.287Z,63.48
2019-06-26T05:09:17.124Z,63.61
2019-06-26T05:11:46.951Z,63.72
2019-06-26T05:14:16.590Z,63.72
2019-06-26T05:16:47.960Z,63.61
2019-06-26T05:19:19.530Z,63.68
2019-06-26T05:21:49.268Z,64.05
2019-06-26T05:24:18.950Z,64.14
2019-06-26T05:26:48.662Z,64.16
2019-06-26T05:29:18.366Z,64.29
2019-06-26T05:31:48.157Z,64.39
2019-06-26T05:34:17.782Z,64.98
2019-06-26T05:36:47.700Z,65.11
2019-06-26T05:39:17.424Z,64.86
2019-06-26T05:41:47.059Z,65.08
2019-06-26T05:44:16.735Z,64.98
2019-06-26T05:46:46.483Z,65.43
2019-06-26T05:49:16.181Z,65.69
2019-06-26T05:51:45.910Z,65.40
2019-06-26T05:54:15.548Z,65.64
2019-06-26T05:56:45.795Z,66.09
2019-06-26T05:59:15.652Z,66.34
2019-06-26T06:01:45.287Z,66.86
2019-06-26T06:04:14.889Z,66.73
2019-06-26T06:06:44.707Z,66.70
2019-06-26T06:09:14.348Z,66.29
2019-06-26T06:15:27.013Z,65.22
2019-06-26T06:17:56.633Z,64.79
2019-06-26T06:20:38.965Z,65.48
2019-06-26T06:23:08.863Z,65.18
2019-06-26T06:25:38.556Z,65.06
2019-06-26T06:28:08.263Z,64.46
2019-06-26T06:30:37.945Z,64.09
2019-06-26T06:33:07.641Z,64.10
2019-06-26T06:35:37.361Z,63.84
2019-06-26T06:38:07.232Z,62.97
2019-06-26T06:40:37.445Z,61.99
2019-06-26T06:43:08.165Z,61.18
2019-06-26T06:45:38.137Z,60.57
2019-06-26T06:48:08.636Z,59.72
2019-06-26T06:50:38.899Z,59.42
2019-06-26T06:53:09.097Z,59.35
2019-06-26T06:55:39.445Z,58.75
2019-06-26T06:58:09.816Z,58.15
2019-06-26T07:00:40.030Z,57.86
2019-06-26T07:03:09.674Z,58.13
2019-06-26T07:05:39.862Z,57.99
2019-06-26T07:08:11.356Z,57.32
2019-06-26T07:10:42.267Z,56.91
2019-06-26T07:13:12.552Z,56.39
2019-06-26T07:15:43.002Z,55.91
2019-06-26T07:18:13.270Z,55.86
2019-06-26T07:20:44.728Z,55.74
2019-06-26T07:23:15.428Z,55.58
2019-06-26T07:25:45.637Z,55.20
2019-06-26T07:28:16.928Z,55.13
2019-06-26T07:30:47.141Z,55.32
2019-06-26T07:33:17.456Z,55.13
2019-06-26T07:35:47.699Z,55.11
2019-06-26T07:38:18.332Z,55.23
2019-06-26T07:40:48.594Z,55.58
2019-06-26T07:43:18.868Z,55.60
2019-06-26T07:45:49.165Z,54.68
2019-06-26T07:48:19.699Z,54.19
2019-06-26T07:50:49.342Z,53.85
2019-06-26T07:53:19.963Z,54.02
2019-06-26T07:55:50.228Z,53.52
2019-06-26T07:58:20.621Z,53.12
2019-06-26T08:00:51.810Z,53.24
2019-06-26T08:03:22.148Z,53.07
2019-06-26T08:05:52.479Z,53.05
2019-06-26T08:08:22.677Z,52.22
2019-06-26T08:10:52.942Z,51.33
2019-06-26T08:13:23.215Z,51.46
2019-06-26T08:15:53.475Z,51.23
2019-06-26T08:18:23.815Z,51.11
2019-06-26T08:21:11.085Z,50.64
2019-06-26T08:23:26.189Z,49.98
2019-06-26T08:25:56.757Z,48.62
2019-06-26T08:28:27.155Z,46.98
2019-06-26T08:30:57.511Z,46.83
2019-06-26T08:33:28.035Z,47.88
2019-06-26T08:35:58.824Z,47.14
2019-06-26T08:38:29.246Z,46.04
2019-06-26T08:40:59.440Z,46.11
2019-06-26T08:43:31.444Z,45.70
2019-06-26T08:46:03.702Z,44.85
2019-06-26T08:48:39.665Z,45.10
2019-06-26T08:51:06.151Z,44.22
2019-06-26T08:53:36.865Z,44.42
2019-06-26T08:56:07.233Z,43.64
2019-06-26T08:58:37.487Z,44.02
2019-06-26T09:01:07.799Z,44.26
2019-06-26T09:03:41.883Z,44.74
2019-06-26T09:06:10.009Z,44.48
2019-06-26T09:08:40.350Z,44.54
2019-06-26T09:11:10.622Z,44.44
2019-06-26T09:13:40.874Z,44.22
2019-06-26T09:16:11.215Z,43.96
2019-06-26T09:18:41.763Z,43.35
2019-06-26T09:21:12.056Z,43.21
2019-06-26T09:23:42.280Z,43.47
2019-06-26T09:26:18.520Z,43.55
2019-06-26T09:28:48.745Z,43.73
2019-06-26T09:31:20.140Z,43.13
2019-06-26T09:34:10.943Z,43.13
2019-06-26T09:36:35.272Z,42.27
2019-06-26T09:39:08.656Z,42.67
2019-06-26T09:41:39.027Z,42.84
2019-06-26T09:44:11.767Z,42.58
2019-06-26T09:46:42.089Z,42.15
2019-06-26T09:49:12.320Z,42.34
2019-06-26T09:51:42.733Z,42.59
2019-06-26T09:54:13.082Z,42.15
2019-06-26T09:56:45.904Z,42.57
2019-06-26T09:59:16.268Z,42.74
2019-06-26T10:01:46.671Z,42.17
2019-06-26T10:04:16.893Z,42.25
2019-06-26T10:06:47.405Z,42.32
2019-06-26T10:09:18.015Z,42.19
2019-06-26T10:11:48.492Z,41.67
2019-06-26T10:14:18.762Z,42.34
2019-06-26T10:16:50.562Z,42.42
2019-06-26T10:19:20.878Z,41.49
2019-06-26T10:21:52.271Z,41.36
2019-06-26T10:24:22.504Z,42.03
2019-06-26T10:26:52.777Z,42.24
2019-06-26T10:29:23.071Z,41.65
2019-06-26T10:31:53.343Z,42.19
2019-06-26T10:34:23.569Z,42.35
2019-06-26T10:36:53.817Z,42.01
2019-06-26T10:39:24.066Z,41.74
2019-06-26T10:41:55.185Z,42.08
2019-06-26T10:44:26.737Z,41.57
2019-06-26T10:46:57.008Z,41.41
2019-06-26T10:49:27.881Z,42.09
2019-06-26T10:52:00.675Z,42.62
2019-06-26T10:54:30.917Z,42.46
2019-06-26T10:57:03.770Z,41.93
2019-06-26T10:59:34.013Z,42.46
2019-06-26T11:02:04.474Z,42.55
2019-06-26T11:04:36.239Z,42.23
2019-06-26T11:07:06.581Z,41.67
2019-06-26T11:09:36.855Z,42.09
2019-06-26T11:12:07.162Z,42.08
2019-06-26T11:14:37.400Z,42.24
2019-06-26T11:17:07.653Z,42.83
2019-06-26T11:19:43.854Z,42.16
2019-06-26T11:22:10.505Z,42.74
2019-06-26T11:24:40.886Z,43.88
2019-06-26T11:27:11.193Z,44.08
2019-06-26T11:29:41.458Z,44.05
2019-06-26T11:32:11.718Z,44.34
2019-06-26T11:34:42.098Z,44.26
2019-06-26T11:37:12.328Z,44.68
2019-06-26T11:39:42.616Z,45.27
2019-06-26T11:42:12.889Z,43.65
2019-06-26T11:44:43.219Z,42.44
2019-06-26T11:47:13.486Z,41.10
2019-06-26T11:49:59.079Z,41.65
2019-06-26T11:52:15.815Z,42.11
2019-06-26T11:55:01.359Z,42.07
2019-06-26T11:57:19.975Z,42.73
2019-06-26T11:59:50.408Z,43.80
2019-06-26T12:02:23.693Z,43.81
2019-06-26T12:04:54.067Z,44.28
2019-06-26T12:07:26.504Z,44.87
2019-06-26T12:10:09.969Z,43.79
2019-06-26T12:12:41.398Z,43.61
2019-06-26T12:15:16.226Z,43.91
2019-06-26T12:17:46.599Z,43.68
2019-06-26T12:20:22.980Z,44.01
2019-06-26T12:22:53.180Z,44.34
2019-06-26T12:25:24.933Z,44.51
2019-06-26T12:27:56.120Z,44.80
2019-06-26T12:30:26.565Z,43.87
2019-06-26T12:33:02.765Z,43.75
2019-06-26T12:35:28.831Z,45.24
2019-06-26T12:37:59.590Z,45.21
2019-06-26T12:40:31.248Z,44.84
2019-06-26T12:43:02.251Z,45.14
2019-06-26T12:45:32.718Z,45.17
2019-06-26T12:48:03.059Z,45.49
2019-06-26T12:50:36.011Z,46.92
2019-06-26T12:53:05.647Z,46.38
2019-06-26T12:55:37.107Z,45.77
2019-06-26T12:58:13.930Z,45.52
2019-06-26T13:00:39.732Z,46.22
2019-06-26T13:03:09.984Z,46.16
2019-06-26T13:05:40.204Z,45.03
2019-06-26T13:08:10.522Z,44.98
2019-06-26T13:10:49.860Z,45.63
2019-06-26T13:13:14.800Z,45.59
2019-06-26T13:15:45.077Z,45.72
2019-06-26T13:18:17.415Z,45.80
2019-06-26T13:20:57.803Z,45.25
2019-06-26T13:23:29.311Z,44.64
2019-06-26T13:25:59.544Z,45.72
2019-06-26T13:28:29.923Z,45.34
2019-06-26T13:31:01.141Z,45.42
2019-06-26T13:33:33.545Z,45.44
2019-06-26T13:36:03.776Z,44.98
2019-06-26T13:38:34.220Z,45.78
2019-06-26T13:41:04.600Z,46.48
2019-06-26T13:43:34.905Z,44.98
2019-06-26T13:46:05.197Z,43.85
2019-06-26T13:48:35.558Z,44.93
2019-06-26T13:51:10.200Z,45.49
2019-06-26T13:53:40.539Z,45.16
2019-06-26T13:56:16.795Z,46.19
2019-06-26T13:58:50.111Z,46.84
2019-06-26T14:01:26.277Z,47.72
2019-06-26T14:03:58.621Z,49.01
2019-06-26T14:06:28.999Z,48.90
2019-06-26T14:08:59.314Z,48.70
2019-06-26T14:11:30.538Z,48.76
2019-06-26T14:14:02.712Z,49.21
2019-06-26T14:16:32.934Z,47.54
2019-06-26T14:19:03.290Z,47.83
2019-06-26T14:21:33.561Z,48.16
2019-06-26T14:24:04.933Z,48.54
2019-06-26T14:26:37.126Z,47.54
2019-06-26T14:29:20.445Z,48.64
2019-06-26T14:31:40.583Z,47.75
2019-06-26T14:34:10.821Z,47.55
2019-06-26T14:36:41.258Z,47.32
2019-06-26T14:39:11.710Z,47.95
2019-06-26T14:41:43.958Z,48.12
2019-06-26T14:44:15.231Z,48.38
2019-06-26T14:46:45.549Z,47.21
2019-06-26T14:49:15.897Z,47.39
2019-06-26T14:51:47.672Z,47.43
2019-06-26T14:54:20.280Z,47.16
2019-06-26T14:56:51.131Z,47.82
2019-06-26T14:59:23.636Z,47.13
2019-06-26T15:01:53.912Z,47.08
2019-06-26T15:04:24.154Z,47.69
2019-06-26T15:07:00.451Z,48.61
2019-06-26T15:09:30.716Z,48.24
2019-06-26T15:12:02.969Z,48.51
2019-06-26T15:14:34.304Z,48.64
2019-06-26T15:17:04.546Z,48.48
2019-06-26T15:19:34.844Z,48.08
2019-06-26T15:22:05.191Z,47.65
2019-06-26T15:24:37.528Z,48.63
2019-06-26T15:27:08.705Z,48.05
2019-06-26T15:29:38.887Z,47.72
2019-06-26T15:32:09.583Z,48.16
2019-06-26T15:34:39.783Z,47.75
2019-06-26T15:37:17.219Z,46.92
2019-06-26T15:39:47.436Z,46.96
2019-06-26T15:42:20.998Z,46.63
2019-06-26T15:44:54.447Z,46.78
2019-06-26T15:47:24.730Z,47.46
2019-06-26T15:49:58.119Z,47.15
2019-06-26T15:52:31.502Z,47.43
2019-06-26T15:55:00.552Z,47.48
2019-06-26T15:57:34.643Z,47.28
2019-06-26T16:00:12.514Z,47.20
2019-06-26T16:02:44.798Z,47.00
2019-06-26T16:05:15.278Z,47.00
2019-06-26T16:07:49.950Z,47.06
2019-06-26T16:10:20.967Z,46.71
2019-06-26T16:12:51.145Z,46.06
2019-06-26T16:15:22.516Z,46.65
2019-06-26T16:18:07.401Z,46.29
2019-06-26T16:20:38.659Z,46.29
2019-06-26T16:23:09.005Z,46.46
2019-06-26T16:26:00.561Z,46.71
2019-06-26T16:28:36.631Z,47.29
2019-06-26T16:31:07.553Z,47.66
2019-06-26T16:33:39.810Z,47.82
2019-06-26T16:36:33.376Z,48.19
2019-06-26T16:39:04.046Z,48.24
2019-06-26T16:41:34.307Z,48.22
2019-06-26T16:44:05.598Z,48.18
2019-06-26T16:46:35.877Z,48.54
2019-06-26T16:49:06.423Z,48.38
2019-06-26T16:51:36.726Z,48.57
2019-06-26T16:54:17.776Z,48.04
2019-06-26T16:56:54.780Z,47.98
2019-06-26T16:59:36.108Z,48.22
2019-06-26T17:02:24.792Z,47.92
2019-06-26T17:04:56.922Z,48.34
2019-06-26T17:07:38.331Z,49.94
2019-06-26T17:10:24.645Z,50.24
2019-06-26T17:12:56.580Z,50.92
2019-06-26T17:15:27.020Z,51.21
2019-06-26T17:17:57.875Z,51.11
2019-06-26T17:20:28.326Z,50.83
2019-06-26T17:23:05.646Z,50.69
2019-06-26T17:25:30.454Z,50.89
2019-06-26T17:28:01.127Z,51.36
2019-06-26T17:30:30.781Z,51.29
2019-06-26T17:33:01.109Z,51.32
2019-06-26T17:35:31.309Z,51.03
2019-06-26T17:38:01.113Z,51.14
2019-06-26T17:40:32.415Z,51.23
2019-06-26T17:43:12.509Z,51.30
2019-06-26T17:45:36.176Z,51.67
2019-06-26T17:48:06.518Z,51.35
2019-06-26T17:50:36.800Z,50.92
2019-06-26T17:53:21.196Z,51.09
2019-06-26T17:55:40.336Z,51.02
2019-06-26T17:58:10.791Z,50.90
2019-06-26T18:00:43.015Z,51.16
2019-06-26T18:03:13.916Z,51.51
2019-06-26T18:05:44.339Z,51.70
2019-06-26T18:08:14.041Z,51.85
2019-06-26T18:10:44.293Z,51.97
2019-06-26T18:13:16.031Z,52.23
2019-06-26T18:15:48.705Z,51.96
2019-06-26T18:18:18.514Z,51.76
2019-06-26T18:20:51.193Z,51.53
2019-06-26T18:23:36.466Z,51.50
2019-06-26T18:26:11.545Z,51.80
2019-06-26T18:28:25.774Z,52.36
2019-06-26T18:30:55.660Z,52.55
2019-06-26T18:33:25.439Z,52.52
2019-06-26T18:35:56.201Z,52.60
2019-06-26T18:38:27.915Z,52.42
2019-06-26T18:40:57.625Z,52.52
2019-06-26T18:43:27.677Z,52.86
2019-06-26T18:46:00.632Z,52.61
2019-06-26T18:48:34.647Z,52.78
2019-06-26T18:51:06.772Z,52.82
2019-06-26T18:53:49.728Z,52.65
2019-06-26T18:56:09.087Z,52.82
2019-06-26T18:58:38.802Z,52.62
2019-06-26T19:01:09.686Z,53.21
2019-06-26T19:03:40.438Z,53.45
2019-06-26T19:06:16.479Z,53.41
2019-06-26T19:08:46.181Z,53.37
2019-06-26T19:11:21.673Z,53.47
2019-06-26T19:13:53.362Z,53.15
2019-06-26T19:16:25.939Z,53.19
2019-06-26T19:18:56.287Z,53.27
2019-06-26T19:21:28.446Z,53.46
2019-06-26T19:24:09.616Z,53.53
2019-06-26T19:26:30.335Z,53.56
2019-06-26T19:29:01.674Z,53.61
2019-06-26T19:31:32.236Z,53.58
2019-06-26T19:34:02.489Z,53.70
2019-06-26T19:36:49.008Z,53.62
2019-06-26T19:39:07.555Z,53.72
2019-06-26T19:41:37.346Z,53.59
2019-06-26T19:44:11.200Z,53.63
2019-06-26T19:46:42.087Z,53.74
2019-06-26T19:49:15.138Z,53.78
2019-06-26T19:51:44.892Z,53.73
2019-06-26T19:54:27.168Z,53.84
2019-06-26T19:56:49.121Z,53.76
2019-06-26T19:59:19.382Z,53.60
2019-06-26T20:01:51.476Z,53.47
2019-06-26T20:04:21.627Z,53.49
2019-06-26T20:06:51.599Z,53.55
2019-06-26T20:09:22.268Z,53.69
2019-06-26T20:11:52.556Z,54.25
2019-06-26T20:14:23.707Z,54.39
2019-06-26T20:16:54.799Z,54.34
2019-06-26T20:19:24.463Z,54.29
2019-06-26T20:21:55.621Z,54.21
2019-06-26T20:24:25.870Z,54.19
2019-06-26T20:27:01.430Z,54.17
2019-06-26T20:29:32.739Z,54.18
2019-06-26T20:32:04.892Z,54.23
2019-06-26T20:34:34.801Z,54.27
2019-06-26T20:37:04.501Z,54.15
2019-06-26T20:39:34.734Z,54.25
2019-06-26T20:42:05.118Z,54.48
2019-06-26T20:44:38.952Z,54.61
2019-06-26T20:47:09.220Z,54.90
2019-06-26T20:49:52.791Z,55.02
2019-06-26T20:52:11.772Z,55.15
2019-06-26T20:54:42.048Z,55.24
2019-06-26T20:57:11.698Z,55.59
2019-06-26T20:59:41.912Z,55.75
2019-06-26T21:02:11.547Z,55.83
2019-06-26T21:04:43.178Z,56.02
2019-06-26T21:07:18.896Z,56.35
2019-06-26T21:09:48.606Z,56.91
2019-06-26T21:12:19.778Z,57.28
2019-06-26T21:14:51.007Z,57.33
2019-06-26T21:17:25.697Z,57.50
2019-06-26T21:19:55.179Z,57.66
2019-06-26T21:22:25.432Z,57.79
2019-06-26T21:24:55.164Z,57.86
2019-06-26T21:27:25.894Z,57.95
2019-06-26T21:29:59.190Z,58.14
2019-06-26T21:32:29.908Z,57.85
2019-06-26T21:34:59.788Z,57.76
2019-06-26T21:37:35.366Z,57.88
2019-06-26T21:40:05.337Z,58.06
2019-06-26T21:42:35.945Z,58.07
2019-06-26T21:45:06.475Z,58.30
2019-06-26T21:47:38.662Z,58.48
2019-06-26T21:50:11.292Z,58.73
2019-06-26T21:52:53.841Z,58.93
2019-06-26T21:55:34.408Z,59.14
2019-06-26T21:57:58.150Z,59.45
2019-06-26T22:00:29.973Z,60.00
2019-06-26T22:03:04.185Z,60.67
2019-06-26T22:05:34.009Z,61.05
2019-06-26T22:08:03.779Z,61.58
2019-06-26T22:10:33.497Z,61.66
2019-06-26T22:13:06.902Z,61.59
2019-06-26T22:15:36.594Z,61.76
2019-06-26T22:18:06.295Z,62.07
2019-06-26T22:20:36.888Z,62.07
2019-06-26T22:23:09.581Z,62.25
2019-06-26T22:25:50.247Z,62.27
2019-06-26T22:28:11.588Z,62.49
2019-06-26T22:30:41.622Z,62.80
2019-06-26T22:33:12.287Z,63.44
2019-06-26T22:35:43.593Z,63.52
2019-06-26T22:38:13.229Z,63.43
2019-06-26T22:40:46.327Z,63.29
2019-06-26T22:43:16.035Z,63.18
2019-06-26T22:45:46.687Z,63.34
2019-06-26T22:48:21.559Z,63.32
2019-06-26T22:50:52.109Z,63.15
2019-06-26T22:53:21.749Z,63.11
2019-06-26T22:56:06.694Z,63.46
2019-06-26T22:58:24.811Z,63.22
2019-06-26T23:01:12.476Z,63.13
2019-06-26T23:03:42.238Z,63.29
2019-06-26T23:06:11.874Z,64.13
2019-06-26T23:08:52.349Z,64.11
2019-06-26T23:11:21.974Z,63.91
2019-06-26T23:13:51.646Z,63.90
2019-06-26T23:16:23.327Z,64.17
2019-06-26T23:18:52.983Z,64.29
2019-06-26T23:21:24.650Z,64.75
2019-06-26T23:23:57.814Z,64.92
2019-06-26T23:26:29.523Z,65.81
2019-06-26T23:29:08.357Z,67.03
2019-06-26T23:31:38.094Z,66.93
2019-06-26T23:34:07.782Z,67.07
2019-06-26T23:36:37.465Z,67.09
2019-06-26T23:39:07.246Z,67.22
2019-06-26T23:41:37.248Z,67.32
2019-06-26T23:44:07.946Z,67.41
2019-06-26T23:46:37.624Z,67.33
2019-06-26T23:49:07.332Z,67.49
2019-06-26T23:51:36.985Z,68.02
2019-06-26T23:54:06.684Z,68.16
2019-06-26T23:56:42.466Z,68.18
2019-06-26T23:59:12.126Z,68.13
